Aviation Digital Data Service (ADDS)

Output produced by METARs form (1036 UTC 17 February 2019)
found at http://aviationweather.gov/metar/data/
 
METAR text: KCVH 171035Z AUTO 15006KT 10SM BKN110 04/02 A3011 RMK A01
Conditions at: KCVH (HOLLISTER MUNI , CA, US) observed 1035 UTC 17 February 2019
Temperature: 4.0°C (39°F)
Dewpoint: 2.0°C (36°F) [RH = 87%]
Pressure (altimeter): 30.11 inches Hg (1019.7 mb)
Winds: from the SSE (150 degrees) at 7 MPH (6 knots; 3.1 m/s)
Visibility: 10 or more miles (16+ km)
Ceiling: 11000 feet AGL
Clouds: broken clouds at 11000 feet AGL
Weather: automated observation with no human augmentation;
there may or may not be significant weather present at this time